createdAt,value
2023-03-12T00:01:59.797Z,94.9
2023-03-12T00:06:56.057Z,95.0
2023-03-12T00:12:12.617Z,95.0
2023-03-12T00:22:25.341Z,95.0
2023-03-12T00:27:31.858Z,95.2
2023-03-12T00:33:02.254Z,95.0
2023-03-12T00:42:51.094Z,95.1
2023-03-12T00:47:57.468Z,95.3
2023-03-12T00:53:03.842Z,95.2
2023-03-12T00:58:37.855Z,95.4
2023-03-12T01:08:30.131Z,95.3
2023-03-12T01:13:35.508Z,95.4
2023-03-12T01:18:42.933Z,95.6
2023-03-12T01:23:39.380Z,95.5
2023-03-12T01:29:09.799Z,95.5
2023-03-12T01:34:02.194Z,95.4
2023-03-12T01:39:08.547Z,95.6
2023-03-12T01:44:14.923Z,95.5
2023-03-12T01:49:21.325Z,95.6
2023-03-12T01:54:27.732Z,95.6
2023-03-12T01:59:34.195Z,95.7
2023-03-12T02:04:44.175Z,95.9
2023-03-12T02:09:50.632Z,95.9
2023-03-12T02:14:57.026Z,96.0
2023-03-12T02:20:27.471Z,96.0
2023-03-12T02:24:59.756Z,96.0
2023-03-12T02:30:36.297Z,95.9
2023-03-12T02:35:46.775Z,96.1
2023-03-12T02:40:19.002Z,96.0
2023-03-12T02:45:35.415Z,96.2
2023-03-12T02:50:41.921Z,96.3
2023-03-12T02:55:51.865Z,96.3
2023-03-12T03:00:58.297Z,96.4
2023-03-12T03:06:04.592Z,96.6
2023-03-12T03:11:11.008Z,96.7
2023-03-12T03:19:49.667Z,96.6
2023-03-12T03:21:23.804Z,96.6
2023-03-12T03:26:30.321Z,96.9
2023-03-12T03:31:36.678Z,96.9
2023-03-12T03:36:43.057Z,97.0
2023-03-12T03:41:49.475Z,96.9
2023-03-12T03:46:45.814Z,97.2
2023-03-12T03:52:02.241Z,97.0
2023-03-12T03:57:28.653Z,97.0
2023-03-12T04:02:15.127Z,97.1
2023-03-12T04:07:21.494Z,97.2
2023-03-12T04:12:27.856Z,97.2
2023-03-12T04:17:34.285Z,97.1
2023-03-12T04:22:40.619Z,97.6
2023-03-12T04:27:46.994Z,97.2
2023-03-12T04:32:53.430Z,97.8
2023-03-12T04:38:19.958Z,97.3
2023-03-12T04:44:06.513Z,97.4
2023-03-12T04:49:24.940Z,97.5
2023-03-12T04:58:25.538Z,97.5
2023-03-12T05:03:32.023Z,97.7
2023-03-12T05:08:38.367Z,97.4
2023-03-12T05:23:57.608Z,97.6
2023-03-12T05:29:05.562Z,97.7
2023-03-12T05:34:25.946Z,97.9
2023-03-12T05:42:02.691Z,97.9
2023-03-12T05:44:24.708Z,97.9
2023-03-12T05:49:31.080Z,97.8
2023-03-12T05:54:57.493Z,97.8
2023-03-12T05:59:43.868Z,97.9
2023-03-12T06:05:11.838Z,98.1
2023-03-12T06:09:58.170Z,98.4
2023-03-12T06:15:04.580Z,98.3
2023-03-12T06:20:35.001Z,98.6
2023-03-12T06:25:17.404Z,98.6
2023-03-12T06:30:43.846Z,99.1
2023-03-12T06:35:30.244Z,99.2
2023-03-12T06:40:37.072Z,99.6
2023-03-12T06:45:43.617Z,99.7
2023-03-12T06:50:50.029Z,99.8
2023-03-12T06:55:56.594Z,99.9
2023-03-12T07:01:07.026Z,99.9
2023-03-12T07:11:15.767Z,99.9
2023-03-12T07:16:22.173Z,99.9
2023-03-12T07:22:12.698Z,99.9
2023-03-12T07:26:34.960Z,99.9
2023-03-12T07:32:41.619Z,99.9
2023-03-12T07:36:47.995Z,99.9
2023-03-12T07:41:54.205Z,99.9
2023-03-12T07:46:50.800Z,99.9
2023-03-12T07:51:57.173Z,99.9
2023-03-12T08:02:44.338Z,99.9
2023-03-12T08:07:26.432Z,99.9
2023-03-12T08:12:32.848Z,99.9
2023-03-12T08:17:39.165Z,99.9
2023-03-12T08:22:45.785Z,99.9
2023-03-12T08:32:58.457Z,99.9
2023-03-12T08:38:04.775Z,99.9
2023-03-12T08:43:11.195Z,99.9
2023-03-12T08:48:17.582Z,99.9
2023-03-12T08:53:23.980Z,99.9
2023-03-12T08:58:30.384Z,99.9
2023-03-12T09:03:36.721Z,99.9
2023-03-12T09:08:43.078Z,99.9
2023-03-12T09:18:56.031Z,99.9
2023-03-12T09:25:14.631Z,99.9
2023-03-12T09:29:08.924Z,99.9
2023-03-12T09:34:15.253Z,99.9
2023-03-12T09:40:25.338Z,99.9
2023-03-12T09:44:31.600Z,99.9
2023-03-12T09:49:37.930Z,99.9
2023-03-12T09:54:47.006Z,99.9
2023-03-12T10:00:10.876Z,99.9
2023-03-12T10:05:00.073Z,99.9
2023-03-12T10:12:51.769Z,99.9
2023-03-12T10:20:16.238Z,99.9
2023-03-12T10:25:22.586Z,99.9
2023-03-12T10:30:28.986Z,99.9
2023-03-12T10:35:35.393Z,99.9
2023-03-12T10:40:41.725Z,99.9
2023-03-12T10:46:08.303Z,99.9
2023-03-12T10:53:38.953Z,99.9
2023-03-12T10:56:00.883Z,99.9
2023-03-12T11:01:07.389Z,99.9
2023-03-12T11:06:33.809Z,99.9
2023-03-12T11:11:20.171Z,99.9
2023-03-12T11:16:27.052Z,99.9
2023-03-12T11:21:24.506Z,99.9
2023-03-12T11:26:40.936Z,99.9
2023-03-12T11:32:47.622Z,99.9
2023-03-12T11:36:53.825Z,99.9
2023-03-12T11:42:00.226Z,99.9
2023-03-12T11:47:06.568Z,99.9
2023-03-12T11:52:12.962Z,99.9
2023-03-12T11:57:19.942Z,99.9
2023-03-12T12:02:26.613Z,99.9
2023-03-12T12:07:32.905Z,99.9
2023-03-12T12:12:39.343Z,99.9
2023-03-12T12:17:45.690Z,99.9
2023-03-12T12:22:52.076Z,99.9
2023-03-12T12:27:58.480Z,99.9
2023-03-12T12:33:04.849Z,99.9
2023-03-12T12:38:11.376Z,99.9
2023-03-12T12:43:17.995Z,99.9
2023-03-12T12:48:24.358Z,99.9
2023-03-12T12:53:54.786Z,99.9
2023-03-12T12:58:37.164Z,99.9
2023-03-12T13:03:43.530Z,99.9
2023-03-12T13:13:56.306Z,99.9
2023-03-12T13:19:02.665Z,99.9
2023-03-12T13:23:59.102Z,99.9
2023-03-12T13:29:15.513Z,99.9
2023-03-12T13:34:21.893Z,99.9
2023-03-12T13:39:28.258Z,99.9
2023-03-12T13:44:34.683Z,99.9
2023-03-12T13:49:41.096Z,99.9
2023-03-12T13:59:53.870Z,99.9
2023-03-12T14:05:00.369Z,99.9
2023-03-12T14:15:33.430Z,99.9
2023-03-12T14:20:19.543Z,99.9
2023-03-12T14:25:25.922Z,99.9
2023-03-12T14:31:44.468Z,99.9
2023-03-12T14:35:58.810Z,99.9
2023-03-12T14:50:57.869Z,99.9
2023-03-12T14:56:04.329Z,99.9
2023-03-12T15:01:55.129Z,99.9
2023-03-12T15:11:17.567Z,99.9
2023-03-12T15:11:23.591Z,99.9
2023-03-12T15:16:30.064Z,99.9
2023-03-12T15:22:00.452Z,99.9
2023-03-12T15:27:08.242Z,99.9
2023-03-12T15:31:51.650Z,99.9
2023-03-12T15:36:58.248Z,99.9
2023-03-12T15:47:11.257Z,99.9
2023-03-12T15:52:17.631Z,99.9
2023-03-12T15:57:24.042Z,99.9
2023-03-12T16:02:30.456Z,99.9
2023-03-12T16:08:48.930Z,99.9
2023-03-12T16:14:07.368Z,99.9
2023-03-12T16:17:49.613Z,99.9
2023-03-12T16:23:40.212Z,99.9
2023-03-12T16:28:46.644Z,99.9
2023-03-12T16:33:09.643Z,99.9
2023-03-12T16:38:15.311Z,99.9
2023-03-12T16:43:21.688Z,99.9
2023-03-12T16:49:28.232Z,99.9
2023-03-12T16:53:34.472Z,99.9
2023-03-12T16:58:40.855Z,99.9
2023-03-12T17:03:47.275Z,99.9
2023-03-12T17:08:53.648Z,99.9
2023-03-12T17:14:00.013Z,99.9
2023-03-12T17:19:06.385Z,99.9
2023-03-12T17:24:36.842Z,99.9
2023-03-12T17:29:19.137Z,99.9
2023-03-12T17:34:25.510Z,99.9
2023-03-12T17:39:31.921Z,99.9
2023-03-12T17:44:38.337Z,99.9
2023-03-12T17:49:44.744Z,99.9
2023-03-12T17:54:51.138Z,99.9
2023-03-12T18:00:17.576Z,99.9
2023-03-12T18:05:47.961Z,99.9
2023-03-12T18:10:34.379Z,99.9
2023-03-12T18:15:37.112Z,99.9
2023-03-12T18:20:37.498Z,99.9
2023-03-12T18:25:22.024Z,99.9
2023-03-12T18:30:38.430Z,99.9
2023-03-12T18:36:04.983Z,99.9
2023-03-12T18:41:15.251Z,99.9
2023-03-12T18:51:04.035Z,99.9
2023-03-12T18:56:44.559Z,99.9
2023-03-12T19:02:12.205Z,99.9
2023-03-12T19:07:18.465Z,99.9
2023-03-12T19:12:30.301Z,99.9
2023-03-12T19:17:11.251Z,99.9
2023-03-12T19:22:41.670Z,99.9
2023-03-12T19:27:44.071Z,99.9
2023-03-12T19:32:21.962Z,99.9
2023-03-12T19:37:36.842Z,99.9
2023-03-12T19:43:03.428Z,99.9
2023-03-12T19:47:49.729Z,99.9
2023-03-12T19:52:56.160Z,99.9
2023-03-12T19:58:01.801Z,99.9
2023-03-12T20:03:29.348Z,99.9
2023-03-12T20:08:15.562Z,99.9
2023-03-12T20:13:46.119Z,99.9
2023-03-12T20:28:31.422Z,99.9
2023-03-12T20:33:47.839Z,99.9
2023-03-12T20:39:54.348Z,99.9
2023-03-12T20:44:00.600Z,99.9
2023-03-12T20:49:10.549Z,99.9
2023-03-12T20:54:40.983Z,99.9
2023-03-12T20:59:43.399Z,99.9
2023-03-12T21:04:29.707Z,99.9
2023-03-12T21:14:42.487Z,99.9
2023-03-12T21:19:38.855Z,99.9
2023-03-12T21:24:55.236Z,99.9
2023-03-12T21:30:01.625Z,99.9
2023-03-12T21:40:04.381Z,99.9
2023-03-12T21:50:27.208Z,99.9
2023-03-12T21:55:33.787Z,99.9
2023-03-12T22:05:46.524Z,99.9
2023-03-12T22:12:05.025Z,99.9
2023-03-12T22:15:59.309Z,99.9
2023-03-12T22:21:05.677Z,99.9
2023-03-12T22:26:12.199Z,99.9
2023-03-12T22:31:08.630Z,99.9
2023-03-12T22:36:24.977Z,99.9
2023-03-12T22:41:31.340Z,99.9
2023-03-12T22:47:01.894Z,99.9
2023-03-12T22:51:44.167Z,99.9
2023-03-12T22:56:50.489Z,99.9
2023-03-12T23:01:56.943Z,99.9
2023-03-12T23:07:13.663Z,99.9
2023-03-12T23:14:57.971Z,99.9
2023-03-12T23:17:40.085Z,99.9
2023-03-12T23:22:46.497Z,99.9
2023-03-12T23:27:28.889Z,99.9
2023-03-12T23:32:25.259Z,99.9
2023-03-12T23:37:31.641Z,99.9
2023-03-12T23:54:00.903Z,99.9
2023-03-12T23:58:31.263Z,99.9
